sensor_id;sensor_type;location;lat;lon;timestamp;temperature;humidity
49385;DHT22;36795;45.028;38.968;2022-07-25T00:01:14;21.50;81.50
49385;DHT22;36795;45.028;38.968;2022-07-25T00:04:01;21.40;81.60
49385;DHT22;36795;45.028;38.968;2022-07-25T00:06:47;21.40;81.70
49385;DHT22;36795;45.028;38.968;2022-07-25T00:09:33;21.40;81.80
49385;DHT22;36795;45.028;38.968;2022-07-25T00:12:20;21.40;81.80
49385;DHT22;36795;45.028;38.968;2022-07-25T00:15:07;21.40;81.80
49385;DHT22;36795;45.028;38.968;2022-07-25T00:17:52;21.40;81.70
49385;DHT22;36795;45.028;38.968;2022-07-25T00:20:39;21.40;81.70
49385;DHT22;36795;45.028;38.968;2022-07-25T00:23:25;21.40;81.70
49385;DHT22;36795;45.028;38.968;2022-07-25T00:26:11;21.40;81.80
49385;DHT22;36795;45.028;38.968;2022-07-25T00:28:57;21.40;81.90
49385;DHT22;36795;45.028;38.968;2022-07-25T00:31:43;21.40;82.00
49385;DHT22;36795;45.028;38.968;2022-07-25T00:34:29;21.40;82.10
49385;DHT22;36795;45.028;38.968;2022-07-25T00:37:15;21.30;82.10
49385;DHT22;36795;45.028;38.968;2022-07-25T00:40:01;21.30;82.10
49385;DHT22;36795;45.028;38.968;2022-07-25T00:42:47;21.30;82.30
49385;DHT22;36795;45.028;38.968;2022-07-25T00:45:33;21.20;82.30
49385;DHT22;36795;45.028;38.968;2022-07-25T00:48:20;21.20;82.90
49385;DHT22;36795;45.028;38.968;2022-07-25T00:51:06;21.10;82.50
49385;DHT22;36795;45.028;38.968;2022-07-25T00:53:53;21.10;82.70
49385;DHT22;36795;45.028;38.968;2022-07-25T00:56:41;21.20;82.70
49385;DHT22;36795;45.028;38.968;2022-07-25T00:59:27;21.20;82.70
49385;DHT22;36795;45.028;38.968;2022-07-25T01:02:13;21.20;82.50
49385;DHT22;36795;45.028;38.968;2022-07-25T01:05:00;21.20;82.50
49385;DHT22;36795;45.028;38.968;2022-07-25T01:07:47;21.20;82.60
49385;DHT22;36795;45.028;38.968;2022-07-25T01:10:34;21.20;82.60
49385;DHT22;36795;45.028;38.968;2022-07-25T01:13:20;21.20;82.60
49385;DHT22;36795;45.028;38.968;2022-07-25T01:16:07;21.10;82.70
49385;DHT22;36795;45.028;38.968;2022-07-25T01:18:53;21.10;82.70
49385;DHT22;36795;45.028;38.968;2022-07-25T01:21:40;21.10;82.60
49385;DHT22;36795;45.028;38.968;2022-07-25T01:24:28;21.10;82.60
49385;DHT22;36795;45.028;38.968;2022-07-25T01:27:14;21.10;82.70
49385;DHT22;36795;45.028;38.968;2022-07-25T01:30:00;21.10;82.90
49385;DHT22;36795;45.028;38.968;2022-07-25T01:32:47;21.10;82.90
49385;DHT22;36795;45.028;38.968;2022-07-25T01:35:33;21.10;83.00
49385;DHT22;36795;45.028;38.968;2022-07-25T01:38:19;21.10;83.00
49385;DHT22;36795;45.028;38.968;2022-07-25T01:41:06;21.10;82.90
49385;DHT22;36795;45.028;38.968;2022-07-25T01:43:52;21.20;83.00
49385;DHT22;36795;45.028;38.968;2022-07-25T01:46:38;21.10;83.00
49385;DHT22;36795;45.028;38.968;2022-07-25T01:49:24;21.10;83.10
49385;DHT22;36795;45.028;38.968;2022-07-25T01:52:11;21.10;83.20
49385;DHT22;36795;45.028;38.968;2022-07-25T01:54:58;21.10;83.20
49385;DHT22;36795;45.028;38.968;2022-07-25T01:57:44;21.20;83.30
49385;DHT22;36795;45.028;38.968;2022-07-25T02:00:31;21.20;83.30
49385;DHT22;36795;45.028;38.968;2022-07-25T02:03:17;21.20;83.20
49385;DHT22;36795;45.028;38.968;2022-07-25T02:06:17;21.20;83.20
49385;DHT22;36795;45.028;38.968;2022-07-25T02:09:03;21.20;83.20
49385;DHT22;36795;45.028;38.968;2022-07-25T02:11:50;21.20;83.20
49385;DHT22;36795;45.028;38.968;2022-07-25T02:14:36;21.20;83.20
49385;DHT22;36795;45.028;38.968;2022-07-25T02:17:22;21.20;83.10
49385;DHT22;36795;45.028;38.968;2022-07-25T02:20:08;21.30;83.10
49385;DHT22;36795;45.028;38.968;2022-07-25T02:22:54;21.30;83.10
49385;DHT22;36795;45.028;38.968;2022-07-25T02:25:40;21.20;83.10
49385;DHT22;36795;45.028;38.968;2022-07-25T02:28:27;21.20;83.20
49385;DHT22;36795;45.028;38.968;2022-07-25T02:31:13;21.20;83.30
49385;DHT22;36795;45.028;38.968;2022-07-25T02:33:59;21.30;83.30
49385;DHT22;36795;45.028;38.968;2022-07-25T02:36:45;21.30;83.20
49385;DHT22;36795;45.028;38.968;2022-07-25T02:39:31;21.30;83.10
49385;DHT22;36795;45.028;38.968;2022-07-25T02:42:18;21.40;83.00
49385;DHT22;36795;45.028;38.968;2022-07-25T02:45:04;21.40;83.00
49385;DHT22;36795;45.028;38.968;2022-07-25T02:47:50;21.40;83.00
49385;DHT22;36795;45.028;38.968;2022-07-25T02:50:37;21.40;83.00
49385;DHT22;36795;45.028;38.968;2022-07-25T02:53:24;21.40;83.10
49385;DHT22;36795;45.028;38.968;2022-07-25T02:56:10;21.40;83.10
49385;DHT22;36795;45.028;38.968;2022-07-25T02:58:57;21.40;83.60
49385;DHT22;36795;45.028;38.968;2022-07-25T03:01:42;21.40;83.00
49385;DHT22;36795;45.028;38.968;2022-07-25T03:04:29;21.50;83.00
49385;DHT22;36795;45.028;38.968;2022-07-25T03:07:15;21.50;82.90
49385;DHT22;36795;45.028;38.968;2022-07-25T03:10:02;21.60;82.70
49385;DHT22;36795;45.028;38.968;2022-07-25T03:12:49;21.70;82.60
49385;DHT22;36795;45.028;38.968;2022-07-25T03:15:35;21.70;82.40
49385;DHT22;36795;45.028;38.968;2022-07-25T03:18:21;21.80;82.30
49385;DHT22;36795;45.028;38.968;2022-07-25T03:21:07;21.90;82.10
49385;DHT22;36795;45.028;38.968;2022-07-25T03:23:53;21.90;82.00
49385;DHT22;36795;45.028;38.968;2022-07-25T03:26:39;21.90;81.80
49385;DHT22;36795;45.028;38.968;2022-07-25T03:29:25;22.00;81.60
49385;DHT22;36795;45.028;38.968;2022-07-25T03:32:11;22.10;81.50
49385;DHT22;36795;45.028;38.968;2022-07-25T03:34:56;22.10;81.30
49385;DHT22;36795;45.028;38.968;2022-07-25T03:37:43;22.20;81.10
49385;DHT22;36795;45.028;38.968;2022-07-25T03:40:29;22.30;80.90
49385;DHT22;36795;45.028;38.968;2022-07-25T03:43:16;22.30;80.80
49385;DHT22;36795;45.028;38.968;2022-07-25T03:46:02;22.40;80.60
49385;DHT22;36795;45.028;38.968;2022-07-25T03:48:49;22.40;80.20
49385;DHT22;36795;45.028;38.968;2022-07-25T03:51:34;22.50;80.10
49385;DHT22;36795;45.028;38.968;2022-07-25T03:54:21;22.60;80.00
49385;DHT22;36795;45.028;38.968;2022-07-25T03:57:07;22.60;79.70
49385;DHT22;36795;45.028;38.968;2022-07-25T03:59:53;22.70;79.40
49385;DHT22;36795;45.028;38.968;2022-07-25T04:02:38;22.80;79.20
49385;DHT22;36795;45.028;38.968;2022-07-25T04:05:25;22.90;79.10
49385;DHT22;36795;45.028;38.968;2022-07-25T04:08:11;22.90;79.20
49385;DHT22;36795;45.028;38.968;2022-07-25T04:10:58;22.90;78.30
49385;DHT22;36795;45.028;38.968;2022-07-25T04:13:44;23.00;78.30
49385;DHT22;36795;45.028;38.968;2022-07-25T04:16:31;23.10;78.00
49385;DHT22;36795;45.028;38.968;2022-07-25T04:19:17;23.10;77.90
49385;DHT22;36795;45.028;38.968;2022-07-25T04:22:03;23.20;77.80
49385;DHT22;36795;45.028;38.968;2022-07-25T04:24:50;23.20;77.70
49385;DHT22;36795;45.028;38.968;2022-07-25T04:27:36;23.30;77.50
49385;DHT22;36795;45.028;38.968;2022-07-25T04:30:22;23.40;77.40
49385;DHT22;36795;45.028;38.968;2022-07-25T04:33:09;23.50;77.30
49385;DHT22;36795;45.028;38.968;2022-07-25T04:35:56;23.50;77.20
49385;DHT22;36795;45.028;38.968;2022-07-25T04:38:42;23.60;76.90
49385;DHT22;36795;45.028;38.968;2022-07-25T04:41:29;23.60;76.40
49385;DHT22;36795;45.028;38.968;2022-07-25T04:44:17;23.70;76.30
49385;DHT22;36795;45.028;38.968;2022-07-25T04:47:04;23.80;76.00
49385;DHT22;36795;45.028;38.968;2022-07-25T04:49:50;23.90;75.80
49385;DHT22;36795;45.028;38.968;2022-07-25T04:52:37;23.90;75.40
49385;DHT22;36795;45.028;38.968;2022-07-25T04:55:24;23.90;75.30
49385;DHT22;36795;45.028;38.968;2022-07-25T04:58:11;24.00;75.20
49385;DHT22;36795;45.028;38.968;2022-07-25T05:01:00;24.00;75.10
49385;DHT22;36795;45.028;38.968;2022-07-25T05:03:46;24.10;74.70
49385;DHT22;36795;45.028;38.968;2022-07-25T05:06:35;24.20;74.30
49385;DHT22;36795;45.028;38.968;2022-07-25T05:09:21;24.40;74.20
49385;DHT22;36795;45.028;38.968;2022-07-25T05:12:07;24.40;73.90
49385;DHT22;36795;45.028;38.968;2022-07-25T05:14:53;24.50;73.90
49385;DHT22;36795;45.028;38.968;2022-07-25T05:17:40;24.60;73.80
49385;DHT22;36795;45.028;38.968;2022-07-25T05:20:26;24.60;73.40
49385;DHT22;36795;45.028;38.968;2022-07-25T05:23:12;24.70;73.10
49385;DHT22;36795;45.028;38.968;2022-07-25T05:25:58;24.80;72.90
49385;DHT22;36795;45.028;38.968;2022-07-25T05:28:45;24.80;72.70
49385;DHT22;36795;45.028;38.968;2022-07-25T05:31:31;24.90;72.00
49385;DHT22;36795;45.028;38.968;2022-07-25T05:34:18;25.00;71.80
49385;DHT22;36795;45.028;38.968;2022-07-25T05:37:04;25.00;71.50
49385;DHT22;36795;45.028;38.968;2022-07-25T05:39:50;25.20;71.70
49385;DHT22;36795;45.028;38.968;2022-07-25T05:42:36;25.20;71.60
49385;DHT22;36795;45.028;38.968;2022-07-25T05:45:26;25.30;71.80
49385;DHT22;36795;45.028;38.968;2022-07-25T05:48:13;25.40;71.90
49385;DHT22;36795;45.028;38.968;2022-07-25T05:50:59;25.50;72.00
49385;DHT22;36795;45.028;38.968;2022-07-25T05:53:47;25.50;71.60
49385;DHT22;36795;45.028;38.968;2022-07-25T05:56:34;25.60;71.20
49385;DHT22;36795;45.028;38.968;2022-07-25T05:59:20;25.60;71.20
49385;DHT22;36795;45.028;38.968;2022-07-25T06:02:15;25.70;70.80
49385;DHT22;36795;45.028;38.968;2022-07-25T06:05:01;25.70;70.90
49385;DHT22;36795;45.028;38.968;2022-07-25T06:07:47;25.80;71.10
49385;DHT22;36795;45.028;38.968;2022-07-25T06:10:34;25.90;70.70
49385;DHT22;36795;45.028;38.968;2022-07-25T06:13:23;25.90;70.40
49385;DHT22;36795;45.028;38.968;2022-07-25T06:16:09;26.00;69.90
49385;DHT22;36795;45.028;38.968;2022-07-25T06:18:54;26.10;69.30
49385;DHT22;36795;45.028;38.968;2022-07-25T06:21:41;26.10;68.70
49385;DHT22;36795;45.028;38.968;2022-07-25T06:24:26;26.10;68.90
49385;DHT22;36795;45.028;38.968;2022-07-25T06:27:13;26.20;68.80
49385;DHT22;36795;45.028;38.968;2022-07-25T06:29:59;26.20;68.60
49385;DHT22;36795;45.028;38.968;2022-07-25T06:32:49;26.30;68.80
49385;DHT22;36795;45.028;38.968;2022-07-25T06:35:35;26.40;68.50
49385;DHT22;36795;45.028;38.968;2022-07-25T06:38:21;26.60;66.50
49385;DHT22;36795;45.028;38.968;2022-07-25T06:41:07;26.60;65.80
49385;DHT22;36795;45.028;38.968;2022-07-25T06:43:53;26.60;65.80
49385;DHT22;36795;45.028;38.968;2022-07-25T06:46:42;26.60;65.10
49385;DHT22;36795;45.028;38.968;2022-07-25T06:49:28;26.80;64.60
49385;DHT22;36795;45.028;38.968;2022-07-25T06:52:14;26.80;63.40
49385;DHT22;36795;45.028;38.968;2022-07-25T06:55:04;26.80;64.00
49385;DHT22;36795;45.028;38.968;2022-07-25T06:57:50;26.90;64.30
49385;DHT22;36795;45.028;38.968;2022-07-25T07:00:37;26.90;64.90
49385;DHT22;36795;45.028;38.968;2022-07-25T07:03:24;27.10;65.10
49385;DHT22;36795;45.028;38.968;2022-07-25T07:06:10;27.20;65.40
49385;DHT22;36795;45.028;38.968;2022-07-25T07:08:56;27.30;63.30
49385;DHT22;36795;45.028;38.968;2022-07-25T07:11:42;27.30;63.10
49385;DHT22;36795;45.028;38.968;2022-07-25T07:14:31;27.30;62.30
49385;DHT22;36795;45.028;38.968;2022-07-25T07:17:18;27.40;62.30
49385;DHT22;36795;45.028;38.968;2022-07-25T07:20:05;27.40;62.30
49385;DHT22;36795;45.028;38.968;2022-07-25T07:22:52;27.50;61.30
49385;DHT22;36795;45.028;38.968;2022-07-25T07:25:38;27.50;61.30
49385;DHT22;36795;45.028;38.968;2022-07-25T07:28:25;27.60;60.50
49385;DHT22;36795;45.028;38.968;2022-07-25T07:31:11;27.60;60.40
49385;DHT22;36795;45.028;38.968;2022-07-25T07:34:00;27.60;61.00
49385;DHT22;36795;45.028;38.968;2022-07-25T07:36:47;27.60;60.10
49385;DHT22;36795;45.028;38.968;2022-07-25T07:39:33;27.70;59.40
49385;DHT22;36795;45.028;38.968;2022-07-25T07:42:19;27.70;59.80
49385;DHT22;36795;45.028;38.968;2022-07-25T07:45:23;27.80;59.60
49385;DHT22;36795;45.028;38.968;2022-07-25T07:48:10;27.80;59.50
49385;DHT22;36795;45.028;38.968;2022-07-25T07:50:57;27.90;60.00
49385;DHT22;36795;45.028;38.968;2022-07-25T07:53:43;28.00;59.70
49385;DHT22;36795;45.028;38.968;2022-07-25T07:56:48;28.10;59.90
49385;DHT22;36795;45.028;38.968;2022-07-25T07:59:34;28.30;59.90
49385;DHT22;36795;45.028;38.968;2022-07-25T08:02:20;28.40;59.00
49385;DHT22;36795;45.028;38.968;2022-07-25T08:05:07;28.40;58.20
49385;DHT22;36795;45.028;38.968;2022-07-25T08:07:53;28.40;58.30
49385;DHT22;36795;45.028;38.968;2022-07-25T08:10:42;28.40;58.30
49385;DHT22;36795;45.028;38.968;2022-07-25T08:13:30;28.50;58.10
49385;DHT22;36795;45.028;38.968;2022-07-25T08:16:19;28.60;57.80
49385;DHT22;36795;45.028;38.968;2022-07-25T08:19:04;28.60;58.20
49385;DHT22;36795;45.028;38.968;2022-07-25T08:21:51;28.70;58.50
49385;DHT22;36795;45.028;38.968;2022-07-25T08:24:37;28.70;56.70
49385;DHT22;36795;45.028;38.968;2022-07-25T08:27:23;28.80;56.40
49385;DHT22;36795;45.028;38.968;2022-07-25T08:30:09;28.80;56.70
49385;DHT22;36795;45.028;38.968;2022-07-25T08:33:01;28.90;57.00
49385;DHT22;36795;45.028;38.968;2022-07-25T08:35:52;28.90;57.50
49385;DHT22;36795;45.028;38.968;2022-07-25T08:38:39;29.00;57.00
49385;DHT22;36795;45.028;38.968;2022-07-25T08:41:25;29.10;56.60
49385;DHT22;36795;45.028;38.968;2022-07-25T08:44:13;29.10;56.30
49385;DHT22;36795;45.028;38.968;2022-07-25T08:47:02;29.30;56.30
49385;DHT22;36795;45.028;38.968;2022-07-25T08:49:48;29.50;55.40
49385;DHT22;36795;45.028;38.968;2022-07-25T08:52:35;29.50;53.60
49385;DHT22;36795;45.028;38.968;2022-07-25T08:55:23;29.40;53.40
49385;DHT22;36795;45.028;38.968;2022-07-25T08:58:10;29.50;53.40
49385;DHT22;36795;45.028;38.968;2022-07-25T09:00:57;29.70;53.30
49385;DHT22;36795;45.028;38.968;2022-07-25T09:03:51;29.80;53.50
49385;DHT22;36795;45.028;38.968;2022-07-25T09:06:49;29.80;53.20
49385;DHT22;36795;45.028;38.968;2022-07-25T09:09:38;29.80;51.70
49385;DHT22;36795;45.028;38.968;2022-07-25T09:12:30;29.80;51.20
49385;DHT22;36795;45.028;38.968;2022-07-25T09:15:37;29.90;50.90
49385;DHT22;36795;45.028;38.968;2022-07-25T09:18:31;30.00;50.80
49385;DHT22;36795;45.028;38.968;2022-07-25T09:21:28;30.10;50.90
49385;DHT22;36795;45.028;38.968;2022-07-25T09:24:17;30.20;49.70
49385;DHT22;36795;45.028;38.968;2022-07-25T09:27:09;30.30;49.50
49385;DHT22;36795;45.028;38.968;2022-07-25T09:29:56;30.20;49.50
49385;DHT22;36795;45.028;38.968;2022-07-25T09:32:42;30.20;50.20
49385;DHT22;36795;45.028;38.968;2022-07-25T09:35:34;30.30;50.50
49385;DHT22;36795;45.028;38.968;2022-07-25T09:38:23;30.40;50.20
49385;DHT22;36795;45.028;38.968;2022-07-25T09:41:10;30.50;49.80
49385;DHT22;36795;45.028;38.968;2022-07-25T09:43:56;30.50;49.70
49385;DHT22;36795;45.028;38.968;2022-07-25T09:46:43;30.60;49.40
49385;DHT22;36795;45.028;38.968;2022-07-25T09:49:42;30.60;49.40
49385;DHT22;36795;45.028;38.968;2022-07-25T09:52:29;30.70;49.20
49385;DHT22;36795;45.028;38.968;2022-07-25T09:55:16;30.70;48.80
49385;DHT22;36795;45.028;38.968;2022-07-25T09:58:03;30.70;49.10
49385;DHT22;36795;45.028;38.968;2022-07-25T10:00:51;30.80;49.30
49385;DHT22;36795;45.028;38.968;2022-07-25T10:03:51;30.90;49.80
49385;DHT22;36795;45.028;38.968;2022-07-25T10:09:56;31.20;49.50
49385;DHT22;36795;45.028;38.968;2022-07-25T10:13:04;31.40;48.70
49385;DHT22;36795;45.028;38.968;2022-07-25T10:16:29;31.70;47.80
49385;DHT22;36795;45.028;38.968;2022-07-25T10:19:46;31.70;48.10
49385;DHT22;36795;45.028;38.968;2022-07-25T10:22:41;31.60;49.30
49385;DHT22;36795;45.028;38.968;2022-07-25T10:25:38;31.50;50.90
49385;DHT22;36795;45.028;38.968;2022-07-25T10:28:38;31.50;50.70
49385;DHT22;36795;45.028;38.968;2022-07-25T10:31:36;31.60;50.30
49385;DHT22;36795;45.028;38.968;2022-07-25T10:34:29;31.70;49.90
49385;DHT22;36795;45.028;38.968;2022-07-25T10:37:16;31.70;50.40
49385;DHT22;36795;45.028;38.968;2022-07-25T10:40:03;31.40;51.40
49385;DHT22;36795;45.028;38.968;2022-07-25T10:42:49;31.00;52.00
49385;DHT22;36795;45.028;38.968;2022-07-25T10:45:56;30.80;53.20
49385;DHT22;36795;45.028;38.968;2022-07-25T10:48:42;30.80;54.50
49385;DHT22;36795;45.028;38.968;2022-07-25T10:51:33;30.90;54.70
49385;DHT22;36795;45.028;38.968;2022-07-25T10:54:21;31.00;54.70
49385;DHT22;36795;45.028;38.968;2022-07-25T10:57:14;31.10;54.80
49385;DHT22;36795;45.028;38.968;2022-07-25T11:00:07;31.20;54.70
49385;DHT22;36795;45.028;38.968;2022-07-25T11:02:56;31.30;54.10
49385;DHT22;36795;45.028;38.968;2022-07-25T11:05:46;31.10;54.20
49385;DHT22;36795;45.028;38.968;2022-07-25T11:08:33;30.90;55.10
49385;DHT22;36795;45.028;38.968;2022-07-25T11:11:20;30.60;56.40
49385;DHT22;36795;45.028;38.968;2022-07-25T11:14:14;30.30;56.60
49385;DHT22;36795;45.028;38.968;2022-07-25T11:17:19;30.00;56.90
49385;DHT22;36795;45.028;38.968;2022-07-25T11:20:07;29.80;57.40
49385;DHT22;36795;45.028;38.968;2022-07-25T11:22:55;29.50;57.70
49385;DHT22;36795;45.028;38.968;2022-07-25T11:25:42;29.40;58.30
49385;DHT22;36795;45.028;38.968;2022-07-25T11:28:46;29.20;59.00
49385;DHT22;36795;45.028;38.968;2022-07-25T11:31:32;29.20;59.30
49385;DHT22;36795;45.028;38.968;2022-07-25T11:34:26;29.10;60.40
49385;DHT22;36795;45.028;38.968;2022-07-25T11:37:13;29.00;60.10
49385;DHT22;36795;45.028;38.968;2022-07-25T11:40:00;28.90;60.40
49385;DHT22;36795;45.028;38.968;2022-07-25T11:42:51;28.90;61.20
49385;DHT22;36795;45.028;38.968;2022-07-25T11:45:38;28.90;60.90
49385;DHT22;36795;45.028;38.968;2022-07-25T11:48:38;28.80;61.00
49385;DHT22;36795;45.028;38.968;2022-07-25T11:51:25;28.70;61.50
49385;DHT22;36795;45.028;38.968;2022-07-25T11:54:12;28.60;61.60
49385;DHT22;36795;45.028;38.968;2022-07-25T11:56:57;28.50;59.90
49385;DHT22;36795;45.028;38.968;2022-07-25T11:59:45;28.40;59.70
49385;DHT22;36795;45.028;38.968;2022-07-25T12:02:33;28.30;59.40
49385;DHT22;36795;45.028;38.968;2022-07-25T12:05:31;28.00;59.70
49385;DHT22;36795;45.028;38.968;2022-07-25T12:08:20;28.00;60.10
49385;DHT22;36795;45.028;38.968;2022-07-25T12:11:18;27.80;60.40
49385;DHT22;36795;45.028;38.968;2022-07-25T12:14:05;27.70;60.90
49385;DHT22;36795;45.028;38.968;2022-07-25T12:16:52;27.70;61.30
49385;DHT22;36795;45.028;38.968;2022-07-25T12:19:39;27.70;61.70
49385;DHT22;36795;45.028;38.968;2022-07-25T12:22:26;27.60;62.40
49385;DHT22;36795;45.028;38.968;2022-07-25T12:25:12;27.70;63.00
49385;DHT22;36795;45.028;38.968;2022-07-25T12:28:00;27.70;63.00
49385;DHT22;36795;45.028;38.968;2022-07-25T12:30:46;27.80;63.10
49385;DHT22;36795;45.028;38.968;2022-07-25T12:33:33;27.70;61.30
49385;DHT22;36795;45.028;38.968;2022-07-25T12:36:19;27.40;60.80
49385;DHT22;36795;45.028;38.968;2022-07-25T12:39:05;27.10;61.50
49385;DHT22;36795;45.028;38.968;2022-07-25T12:41:51;26.80;62.60
49385;DHT22;36795;45.028;38.968;2022-07-25T12:44:37;26.60;63.40
49385;DHT22;36795;45.028;38.968;2022-07-25T12:47:23;26.30;64.10
49385;DHT22;36795;45.028;38.968;2022-07-25T12:50:10;26.10;64.70
49385;DHT22;36795;45.028;38.968;2022-07-25T12:52:56;25.90;64.30
49385;DHT22;36795;45.028;38.968;2022-07-25T12:55:43;25.90;63.90
49385;DHT22;36795;45.028;38.968;2022-07-25T12:58:29;26.00;63.20
49385;DHT22;36795;45.028;38.968;2022-07-25T13:01:15;25.80;63.30
49385;DHT22;36795;45.028;38.968;2022-07-25T13:04:01;26.00;63.30
49385;DHT22;36795;45.028;38.968;2022-07-25T13:06:48;26.10;63.00
49385;DHT22;36795;45.028;38.968;2022-07-25T13:09:34;26.20;62.70
49385;DHT22;36795;45.028;38.968;2022-07-25T13:12:21;26.20;62.30
49385;DHT22;36795;45.028;38.968;2022-07-25T13:15:08;26.30;62.40
49385;DHT22;36795;45.028;38.968;2022-07-25T13:17:54;26.50;61.80
49385;DHT22;36795;45.028;38.968;2022-07-25T13:20:40;26.60;61.30
49385;DHT22;36795;45.028;38.968;2022-07-25T13:23:27;26.60;61.40
49385;DHT22;36795;45.028;38.968;2022-07-25T13:26:12;26.80;61.40
49385;DHT22;36795;45.028;38.968;2022-07-25T13:29:00;26.90;61.30
49385;DHT22;36795;45.028;38.968;2022-07-25T13:31:46;27.10;60.90
49385;DHT22;36795;45.028;38.968;2022-07-25T13:34:32;27.20;60.80
49385;DHT22;36795;45.028;38.968;2022-07-25T13:37:18;27.40;60.40
49385;DHT22;36795;45.028;38.968;2022-07-25T13:40:05;27.50;60.30
49385;DHT22;36795;45.028;38.968;2022-07-25T13:42:51;27.50;60.40
49385;DHT22;36795;45.028;38.968;2022-07-25T13:45:39;27.60;60.90
49385;DHT22;36795;45.028;38.968;2022-07-25T13:48:25;27.60;60.50
49385;DHT22;36795;45.028;38.968;2022-07-25T13:51:12;27.50;60.80
49385;DHT22;36795;45.028;38.968;2022-07-25T13:53:59;27.40;61.30
49385;DHT22;36795;45.028;38.968;2022-07-25T13:56:45;27.10;61.70
49385;DHT22;36795;45.028;38.968;2022-07-25T13:59:31;27.00;62.10
49385;DHT22;36795;45.028;38.968;2022-07-25T14:02:18;27.00;62.50
49385;DHT22;36795;45.028;38.968;2022-07-25T14:05:05;26.90;62.90
49385;DHT22;36795;45.028;38.968;2022-07-25T14:07:51;26.80;63.10
49385;DHT22;36795;45.028;38.968;2022-07-25T14:10:38;26.80;63.30
49385;DHT22;36795;45.028;38.968;2022-07-25T14:13:25;26.80;63.50
49385;DHT22;36795;45.028;38.968;2022-07-25T14:16:13;26.90;63.40
49385;DHT22;36795;45.028;38.968;2022-07-25T14:19:01;27.00;63.10
49385;DHT22;36795;45.028;38.968;2022-07-25T14:21:48;27.10;62.90
49385;DHT22;36795;45.028;38.968;2022-07-25T14:24:47;27.10;62.70
49385;DHT22;36795;45.028;38.968;2022-07-25T14:27:53;27.20;62.30
49385;DHT22;36795;45.028;38.968;2022-07-25T14:30:39;27.20;61.80
49385;DHT22;36795;45.028;38.968;2022-07-25T14:33:40;27.30;61.30
49385;DHT22;36795;45.028;38.968;2022-07-25T14:36:35;27.30;60.60
49385;DHT22;36795;45.028;38.968;2022-07-25T14:39:21;27.20;60.20
49385;DHT22;36795;45.028;38.968;2022-07-25T14:42:07;27.20;60.50
49385;DHT22;36795;45.028;38.968;2022-07-25T14:44:55;27.20;60.90
49385;DHT22;36795;45.028;38.968;2022-07-25T14:47:42;27.20;61.30
49385;DHT22;36795;45.028;38.968;2022-07-25T14:50:28;27.10;61.40
49385;DHT22;36795;45.028;38.968;2022-07-25T14:53:14;27.00;61.50
49385;DHT22;36795;45.028;38.968;2022-07-25T14:56:05;27.00;61.40
49385;DHT22;36795;45.028;38.968;2022-07-25T14:58:50;27.00;61.10
49385;DHT22;36795;45.028;38.968;2022-07-25T15:01:37;27.10;60.70
49385;DHT22;36795;45.028;38.968;2022-07-25T15:04:24;27.30;60.10
49385;DHT22;36795;45.028;38.968;2022-07-25T15:07:11;27.40;59.90
49385;DHT22;36795;45.028;38.968;2022-07-25T15:09:57;27.40;60.00
49385;DHT22;36795;45.028;38.968;2022-07-25T15:12:44;27.20;60.30
49385;DHT22;36795;45.028;38.968;2022-07-25T15:15:29;27.10;60.60
49385;DHT22;36795;45.028;38.968;2022-07-25T15:18:17;27.00;61.00
49385;DHT22;36795;45.028;38.968;2022-07-25T15:21:04;26.90;61.40
49385;DHT22;36795;45.028;38.968;2022-07-25T15:23:51;26.70;61.90
49385;DHT22;36795;45.028;38.968;2022-07-25T15:26:38;26.60;62.40
49385;DHT22;36795;45.028;38.968;2022-07-25T15:29:25;26.40;63.00
49385;DHT22;36795;45.028;38.968;2022-07-25T15:32:12;26.30;63.50
49385;DHT22;36795;45.028;38.968;2022-07-25T15:34:59;26.10;64.30
49385;DHT22;36795;45.028;38.968;2022-07-25T15:37:44;26.00;63.80
49385;DHT22;36795;45.028;38.968;2022-07-25T15:40:31;25.90;63.80
49385;DHT22;36795;45.028;38.968;2022-07-25T15:43:17;25.80;63.80
49385;DHT22;36795;45.028;38.968;2022-07-25T15:46:04;25.80;63.70
49385;DHT22;36795;45.028;38.968;2022-07-25T15:48:49;25.80;63.60
49385;DHT22;36795;45.028;38.968;2022-07-25T15:51:36;25.80;63.60
49385;DHT22;36795;45.028;38.968;2022-07-25T15:54:22;25.70;63.70
49385;DHT22;36795;45.028;38.968;2022-07-25T15:57:08;25.70;63.80
49385;DHT22;36795;45.028;38.968;2022-07-25T15:59:54;25.70;64.00
49385;DHT22;36795;45.028;38.968;2022-07-25T16:02:41;25.70;64.10
49385;DHT22;36795;45.028;38.968;2022-07-25T16:05:27;25.70;64.20
49385;DHT22;36795;45.028;38.968;2022-07-25T16:08:15;25.80;64.60
49385;DHT22;36795;45.028;38.968;2022-07-25T16:11:02;25.70;64.90
49385;DHT22;36795;45.028;38.968;2022-07-25T16:13:48;25.70;65.10
49385;DHT22;36795;45.028;38.968;2022-07-25T16:16:35;25.60;65.30
49385;DHT22;36795;45.028;38.968;2022-07-25T16:19:21;25.50;65.40
49385;DHT22;36795;45.028;38.968;2022-07-25T16:22:08;25.50;65.20
49385;DHT22;36795;45.028;38.968;2022-07-25T16:24:55;25.40;65.30
49385;DHT22;36795;45.028;38.968;2022-07-25T16:27:42;25.40;65.30
49385;DHT22;36795;45.028;38.968;2022-07-25T16:30:27;25.30;65.40
49385;DHT22;36795;45.028;38.968;2022-07-25T16:33:14;25.30;65.60
49385;DHT22;36795;45.028;38.968;2022-07-25T16:36:00;25.30;65.80
49385;DHT22;36795;45.028;38.968;2022-07-25T16:38:47;25.30;65.80
49385;DHT22;36795;45.028;38.968;2022-07-25T16:41:33;25.30;65.80
49385;DHT22;36795;45.028;38.968;2022-07-25T16:44:20;25.20;65.80
49385;DHT22;36795;45.028;38.968;2022-07-25T16:47:08;25.30;66.60
49385;DHT22;36795;45.028;38.968;2022-07-25T16:49:55;25.20;66.10
49385;DHT22;36795;45.028;38.968;2022-07-25T16:52:41;25.10;66.30
49385;DHT22;36795;45.028;38.968;2022-07-25T16:55:27;25.20;66.40
49385;DHT22;36795;45.028;38.968;2022-07-25T16:58:13;25.10;66.30
49385;DHT22;36795;45.028;38.968;2022-07-25T17:00:59;25.10;66.20
49385;DHT22;36795;45.028;38.968;2022-07-25T17:03:46;25.20;66.00
49385;DHT22;36795;45.028;38.968;2022-07-25T17:06:33;25.20;66.00
49385;DHT22;36795;45.028;38.968;2022-07-25T17:09:18;25.20;65.90
49385;DHT22;36795;45.028;38.968;2022-07-25T17:12:05;25.20;65.80
49385;DHT22;36795;45.028;38.968;2022-07-25T17:14:51;25.20;65.90
49385;DHT22;36795;45.028;38.968;2022-07-25T17:17:38;25.20;65.90
49385;DHT22;36795;45.028;38.968;2022-07-25T17:20:24;25.20;66.00
49385;DHT22;36795;45.028;38.968;2022-07-25T17:23:10;25.20;66.20
49385;DHT22;36795;45.028;38.968;2022-07-25T17:25:57;25.20;66.20